Terminal Aerodrome Forecast
Issued by NWS

Home | Current Version | Previous Version | Graphics & Text | Print | Product List | Glossary On
Versions: 1 2 3 4 5 6 7 8 9 10 11 12 13 14 15 16 17 18 19 20 21
000
FTUS43 KBIS 221726
TAFJMS
TAF
KJMS 221726Z 2218/2318 18007KT P6SM FEW250
     FM222200 13007KT P6SM VCSH OVC050
     FM230100 11005KT 5SM -SN OVC025
     FM230300 09004KT 1SM -SN OVC015
     FM230700 36004KT P6SM VCSH OVC015
     FM231100 33006KT P6SM BKN025=

USA.gov is the U.S. government's official web portal to all federal, state and local government web resources and services.